createdAt,value
2022-08-03T00:18:58.155Z,1001.8
2022-08-03T00:21:26.384Z,1001.8
2022-08-03T00:24:31.718Z,1001.7
2022-08-03T00:26:59.947Z,1001.7
2022-08-03T00:29:28.165Z,1001.7
2022-08-03T00:32:33.503Z,1001.7
2022-08-03T00:35:36.638Z,1001.6
2022-08-03T00:37:58.843Z,1001.7
2022-08-03T00:40:27.105Z,1001.4
2022-08-03T00:43:32.435Z,1001.6
2022-08-03T00:46:00.665Z,1001.6
2022-08-03T00:48:32.244Z,1001.6
2022-08-03T00:51:34.280Z,1001.6
2022-08-03T00:54:02.469Z,1001.6
2022-08-03T00:57:02.911Z,1001.6
2022-08-03T00:58:58.970Z,1001.6
2022-08-03T01:01:27.318Z,1001.4
2022-08-03T01:04:32.516Z,1001.5
2022-08-03T01:07:00.754Z,1001.5
2022-08-03T01:09:29.001Z,1001.5
2022-08-03T01:12:34.325Z,1001.5
2022-08-03T01:15:02.581Z,1001.5
2022-08-03T01:17:30.823Z,1001.5
2022-08-03T01:19:59.075Z,1001.7
2022-08-03T01:22:27.327Z,1001.4
2022-08-03T01:26:09.716Z,1001.5
2022-08-03T01:29:15.033Z,1001.4
2022-08-03T01:33:34.704Z,1001.4
2022-08-03T01:36:02.760Z,1001.4
2022-08-03T01:38:30.945Z,1001.4
2022-08-03T01:40:59.197Z,1001.4
2022-08-03T01:43:55.679Z,1001.4
2022-08-03T01:46:24.555Z,1001.4
2022-08-03T01:49:29.894Z,1001.4
2022-08-03T01:52:03.717Z,1001.4
2022-08-03T01:55:03.453Z,1001.4
2022-08-03T01:57:31.719Z,1001.4
2022-08-03T01:59:59.945Z,1001.3
2022-08-03T02:02:32.519Z,1001.4
2022-08-03T02:05:33.541Z,1001.3
2022-08-03T02:08:01.753Z,1001.3
2022-08-03T02:10:35.070Z,1001.4
2022-08-03T02:12:58.226Z,1001.3
2022-08-03T02:15:26.458Z,1001.4
2022-08-03T02:18:31.866Z,1001.3
2022-08-03T02:21:00.041Z,1001.3
2022-08-03T02:23:28.350Z,1001.3
2022-08-03T02:26:33.620Z,1001.3
2022-08-03T02:29:01.861Z,1001.3
2022-08-03T02:31:30.092Z,1001.4
2022-08-03T02:33:58.387Z,1001.3
2022-08-03T02:36:26.571Z,1001.3
2022-08-03T02:39:31.918Z,1001.3
2022-08-03T02:42:00.149Z,1001.3
2022-08-03T02:44:28.402Z,1001.3
2022-08-03T02:47:52.173Z,1001.3
2022-08-03T02:49:53.832Z,1001.3
2022-08-03T02:52:22.052Z,1001.3
2022-08-03T02:56:04.392Z,1001.3
2022-08-03T02:58:32.628Z,1001.3
2022-08-03T03:01:00.944Z,1001.3
2022-08-03T03:03:30.614Z,1001.3
2022-08-03T03:06:34.428Z,1001.3
2022-08-03T03:09:02.682Z,1001.3
2022-08-03T03:11:30.934Z,1001.3
2022-08-03T03:13:59.193Z,1001.3
2022-08-03T03:16:27.432Z,1001.3
2022-08-03T03:20:09.804Z,1001.3
2022-08-03T03:23:15.117Z,1001.3
2022-08-03T03:26:20.411Z,1001.3
2022-08-03T03:29:25.724Z,1001.3
2022-08-03T03:32:31.030Z,1001.3
2022-08-03T03:34:59.303Z,1001.3
2022-08-03T03:37:27.518Z,1001.3
2022-08-03T03:40:32.864Z,1001.3
2022-08-03T03:43:01.109Z,1001.3
2022-08-03T03:45:29.346Z,1001.3
2022-08-03T03:48:26.510Z,1001.3
2022-08-03T03:51:31.789Z,1001.3
2022-08-03T03:54:00.012Z,1001.3
2022-08-03T03:56:28.305Z,1001.3
2022-08-03T03:59:33.567Z,1001.4
2022-08-03T04:02:01.973Z,1001.4
2022-08-03T04:04:30.069Z,1001.3
2022-08-03T04:06:58.331Z,1001.3
2022-08-03T04:09:26.553Z,1001.3
2022-08-03T04:12:31.916Z,1001.3
2022-08-03T04:15:00.166Z,1001.4
2022-08-03T04:17:28.393Z,1001.4
2022-08-03T04:20:33.692Z,1001.4
2022-08-03T04:23:01.938Z,1001.4
2022-08-03T04:25:30.197Z,1001.4
2022-08-03T04:28:07.827Z,1001.4
2022-08-03T04:30:26.689Z,1001.4
2022-08-03T04:33:32.411Z,1001.4
2022-08-03T04:36:02.429Z,1001.4
2022-08-03T04:38:28.502Z,1001.4
2022-08-03T04:41:33.775Z,1001.4
2022-08-03T04:44:02.052Z,1001.4
2022-08-03T04:46:30.301Z,1001.4
2022-08-03T04:48:50.357Z,1001.5
2022-08-03T04:51:18.604Z,1001.4
2022-08-03T04:55:00.948Z,1001.4
2022-08-03T04:57:29.213Z,1001.4
2022-08-03T05:00:34.522Z,1001.5
2022-08-03T05:03:02.786Z,1001.5
2022-08-03T05:05:34.949Z,1001.5
2022-08-03T05:07:59.275Z,1001.5
2022-08-03T05:10:27.551Z,1001.5
2022-08-03T05:13:32.838Z,1001.5
2022-08-03T05:16:01.054Z,1001.5
2022-08-03T05:18:29.348Z,1001.5
2022-08-03T05:20:57.591Z,1001.5
2022-08-03T05:23:25.823Z,1001.5
2022-08-03T05:26:31.116Z,1001.6
2022-08-03T05:28:59.377Z,1001.5
2022-08-03T05:31:27.643Z,1001.6
2022-08-03T05:34:32.923Z,1001.6
2022-08-03T05:37:01.188Z,1001.6
2022-08-03T05:39:29.412Z,1001.7
2022-08-03T05:42:34.741Z,1001.6
2022-08-03T05:45:02.980Z,1001.7
2022-08-03T05:47:31.267Z,1001.7
2022-08-03T05:49:51.289Z,1001.7
2022-08-03T05:52:19.535Z,1001.6
2022-08-03T05:55:24.862Z,1001.7
2022-08-03T05:58:30.161Z,1001.7
2022-08-03T06:00:58.408Z,1001.6
2022-08-03T06:03:26.671Z,1001.6
2022-08-03T06:06:32.501Z,1001.7
2022-08-03T06:10:34.709Z,1001.6
2022-08-03T06:12:05.547Z,1001.7
2022-08-03T06:14:33.757Z,1001.6
2022-08-03T06:17:02.047Z,1001.7
2022-08-03T06:19:30.288Z,1001.7
2022-08-03T06:21:58.523Z,1001.7
2022-08-03T06:24:26.774Z,1001.6
2022-08-03T06:27:36.366Z,1001.6
2022-08-03T06:30:00.383Z,1001.6
2022-08-03T06:32:28.593Z,1001.6
2022-08-03T06:35:33.891Z,1001.6
2022-08-03T06:38:02.175Z,1001.7
2022-08-03T06:40:30.380Z,1001.7
2022-08-03T06:42:58.669Z,1001.6
2022-08-03T06:45:26.876Z,1001.6
2022-08-03T06:48:24.012Z,1001.6
2022-08-03T06:52:04.654Z,1001.6
2022-08-03T06:53:57.601Z,1001.7
2022-08-03T06:56:25.802Z,1001.7
2022-08-03T07:00:07.095Z,1001.7
2022-08-03T07:01:59.378Z,1001.7
2022-08-03T07:04:27.668Z,1001.7
2022-08-03T07:07:32.908Z,1001.7
2022-08-03T07:10:02.188Z,1001.6
2022-08-03T07:12:29.448Z,1001.7
2022-08-03T07:15:00.606Z,1001.7
2022-08-03T07:17:25.936Z,1001.7
2022-08-03T07:20:32.661Z,1001.7
2022-08-03T07:22:59.463Z,1001.7
2022-08-03T07:25:27.723Z,1001.7
2022-08-03T07:28:33.069Z,1001.7
2022-08-03T07:31:01.270Z,1001.7
2022-08-03T07:33:29.537Z,1001.7
2022-08-03T07:36:34.859Z,1001.7
2022-08-03T07:39:15.436Z,1001.7
2022-08-03T07:41:31.356Z,1001.7
2022-08-03T07:43:59.597Z,1001.7
2022-08-03T07:46:27.827Z,1001.8
2022-08-03T07:49:25.021Z,1001.7
2022-08-03T07:52:30.276Z,1001.7
2022-08-03T07:54:58.497Z,1001.7
2022-08-03T07:57:26.791Z,1001.7
2022-08-03T08:00:32.075Z,1001.7
2022-08-03T08:03:00.322Z,1001.7
2022-08-03T08:05:28.577Z,1001.7
2022-08-03T08:09:10.961Z,1001.6
2022-08-03T08:12:16.685Z,1001.6
2022-08-03T08:15:21.578Z,1001.7
2022-08-03T08:18:26.865Z,1001.6
2022-08-03T08:21:52.767Z,1001.6
2022-08-03T08:24:00.431Z,1001.6
2022-08-03T08:26:28.688Z,1001.7
2022-08-03T08:29:34.007Z,1001.6
2022-08-03T08:32:02.244Z,1001.6
2022-08-03T08:34:30.463Z,1001.6
2022-08-03T08:36:58.753Z,1001.6
2022-08-03T08:39:27.003Z,1001.6
2022-08-03T08:42:32.260Z,1001.5
2022-08-03T08:45:00.540Z,1001.5
2022-08-03T08:47:28.813Z,1001.6
2022-08-03T08:50:27.563Z,1001.5
2022-08-03T08:53:31.198Z,1001.5
2022-08-03T08:56:00.618Z,1001.5
2022-08-03T08:58:27.750Z,1001.5
2022-08-03T09:01:33.075Z,1001.5
2022-08-03T09:04:01.243Z,1001.5
2022-08-03T09:06:29.500Z,1001.4
2022-08-03T09:08:57.793Z,1001.4
2022-08-03T09:11:52.600Z,1001.5
2022-08-03T09:14:33.733Z,1001.5
2022-08-03T09:16:59.573Z,1001.5
2022-08-03T09:19:27.837Z,1001.4
2022-08-03T09:22:33.123Z,1001.4
2022-08-03T09:25:23.115Z,1001.4
2022-08-03T09:27:29.626Z,1001.4
2022-08-03T09:30:35.274Z,1001.4
2022-08-03T09:33:03.158Z,1001.4
2022-08-03T09:35:51.993Z,1001.4
2022-08-03T09:38:12.446Z,1001.4
2022-08-03T09:40:27.918Z,1001.4
2022-08-03T09:43:33.236Z,1001.3
2022-08-03T09:46:01.466Z,1001.3
2022-08-03T09:48:29.735Z,1001.3
2022-08-03T09:52:33.323Z,1001.3
2022-08-03T09:54:32.156Z,1001.3
2022-08-03T09:57:00.395Z,1001.3
2022-08-03T09:59:28.661Z,1001.2
2022-08-03T10:02:33.962Z,1001.3
2022-08-03T10:05:02.237Z,1001.3
2022-08-03T10:07:30.449Z,1001.2
2022-08-03T10:10:29.175Z,1001.3
2022-08-03T10:12:26.957Z,1001.2
2022-08-03T10:16:20.542Z,1001.2
2022-08-03T10:18:00.503Z,1001.2
2022-08-03T10:20:28.830Z,1001.2
2022-08-03T10:23:34.174Z,1001.2
2022-08-03T10:26:02.336Z,1001.1
2022-08-03T10:28:30.587Z,1001.1
2022-08-03T10:30:58.840Z,1001.1
2022-08-03T10:33:50.519Z,1000.9
2022-08-03T10:36:32.530Z,1001
2022-08-03T10:39:00.648Z,1001
2022-08-03T10:41:28.926Z,1001
2022-08-03T10:43:57.172Z,1001
2022-08-03T10:46:25.354Z,1000.9
2022-08-03T10:49:34.160Z,1000.8
2022-08-03T10:51:58.954Z,1000.9
2022-08-03T10:54:27.191Z,1000.6
2022-08-03T10:57:32.472Z,1000.8
2022-08-03T11:00:37.885Z,1000.7
2022-08-03T11:02:57.859Z,1000.8
2022-08-03T11:05:26.141Z,1000.6
2022-08-03T11:08:31.433Z,1000.6
2022-08-03T11:10:59.695Z,1000.6
2022-08-03T11:13:27.897Z,1000.6
2022-08-03T11:16:33.257Z,1000.5
2022-08-03T11:19:01.462Z,1000.6
2022-08-03T11:21:30.474Z,1000.5
2022-08-03T11:24:03.719Z,1000.5
2022-08-03T11:26:26.187Z,1000.5
2022-08-03T11:29:31.563Z,1000.5
2022-08-03T11:31:59.826Z,1000.5
2022-08-03T11:34:28.019Z,1000.5
2022-08-03T11:37:33.526Z,1000.4
2022-08-03T11:40:02.629Z,1000.4
2022-08-03T11:42:29.813Z,1000.4
2022-08-03T11:44:58.078Z,1000.4
2022-08-03T11:47:26.312Z,1000.4
2022-08-03T11:51:08.730Z,1000.4
2022-08-03T11:54:14.042Z,1000.3
2022-08-03T11:57:19.523Z,1000.3
2022-08-03T12:00:25.812Z,1000.3
2022-08-03T12:03:30.015Z,1000.2
2022-08-03T12:05:58.221Z,1000.2
2022-08-03T12:08:26.468Z,1000.2
2022-08-03T12:10:54.677Z,1000.2
2022-08-03T12:13:57.169Z,1000.2
2022-08-03T12:16:20.040Z,1000.2
2022-08-03T12:19:25.455Z,1000.2
2022-08-03T12:22:30.669Z,1000.2
2022-08-03T12:24:58.933Z,1000.2
2022-08-03T12:27:27.175Z,1000
2022-08-03T12:30:32.504Z,1000.1
2022-08-03T12:33:00.720Z,1000.1
2022-08-03T12:35:28.974Z,1000.1
2022-08-03T12:38:36.258Z,1000
2022-08-03T12:41:02.562Z,1000
2022-08-03T12:43:36.742Z,1000
2022-08-03T12:45:59.029Z,1000
2022-08-03T12:48:27.931Z,999.8
2022-08-03T12:51:32.581Z,999.9
2022-08-03T12:54:00.811Z,1000
2022-08-03T12:56:29.104Z,999.9
2022-08-03T12:59:35.111Z,999.9
2022-08-03T13:02:02.904Z,999.9
2022-08-03T13:04:33.130Z,999.9
2022-08-03T13:07:02.872Z,999.9
2022-08-03T13:09:43.230Z,999.7
2022-08-03T13:12:32.715Z,999.8
2022-08-03T13:14:52.770Z,999.7
2022-08-03T13:17:21.295Z,999.8
2022-08-03T13:20:26.487Z,999.8
2022-08-03T13:23:31.628Z,999.7
2022-08-03T13:25:59.899Z,999.7
2022-08-03T13:28:28.145Z,999.6
2022-08-03T13:31:33.476Z,999.6
2022-08-03T13:34:01.681Z,999.6
2022-08-03T13:36:30.021Z,999.5
2022-08-03T13:38:58.198Z,999.5
2022-08-03T13:41:29.005Z,999.5
2022-08-03T13:44:31.775Z,999.5
2022-08-03T13:47:00.007Z,999.4
2022-08-03T13:49:28.236Z,999.5
2022-08-03T13:52:33.585Z,999.4
2022-08-03T13:55:01.784Z,999.4
2022-08-03T13:58:01.675Z,999.4
2022-08-03T13:59:58.276Z,999.3
2022-08-03T14:02:26.615Z,999.3
2022-08-03T14:05:32.318Z,999.2
2022-08-03T14:08:04.510Z,999.3
2022-08-03T14:10:28.360Z,999.2
2022-08-03T14:13:25.476Z,999.2
2022-08-03T14:16:30.754Z,999.1
2022-08-03T14:18:59.056Z,999.1
2022-08-03T14:21:27.282Z,998.9
2022-08-03T14:24:32.595Z,999.1
2022-08-03T14:27:07.294Z,999.1
2022-08-03T14:29:29.116Z,999
2022-08-03T14:32:09.368Z,999
2022-08-03T14:34:25.598Z,999
2022-08-03T14:37:30.871Z,999
2022-08-03T14:40:00.145Z,999
2022-08-03T14:42:27.374Z,998.8
2022-08-03T14:45:32.678Z,999
2022-08-03T14:50:26.595Z,999
2022-08-03T14:52:20.385Z,999
2022-08-03T14:55:25.688Z,998.9
2022-08-03T14:58:30.964Z,998.9
2022-08-03T15:00:59.259Z,998.9
2022-08-03T15:03:27.503Z,998.8
2022-08-03T15:06:32.806Z,998.8
2022-08-03T15:09:21.040Z,998.8
2022-08-03T15:11:29.307Z,998.7
2022-08-03T15:15:03.494Z,998.7
2022-08-03T15:17:31.725Z,998.6
2022-08-03T15:20:17.129Z,998.6
2022-08-03T15:22:34.458Z,998.6
2022-08-03T15:26:01.928Z,998.6
2022-08-03T15:28:03.143Z,998.5
2022-08-03T15:30:30.047Z,998.5
2022-08-03T15:32:58.270Z,998.5
2022-08-03T15:35:26.539Z,998.4
2022-08-03T15:38:31.867Z,998.4
2022-08-03T15:41:00.135Z,998.3
2022-08-03T15:43:28.333Z,998.3
2022-08-03T15:46:33.650Z,998.4
2022-08-03T15:49:01.891Z,998.3
2022-08-03T15:51:30.157Z,998.4
2022-08-03T15:53:58.363Z,1001.4
2022-08-03T15:57:03.708Z,998.3
2022-08-03T15:59:31.973Z,998.2
2022-08-03T16:02:00.336Z,998.3
2022-08-03T16:04:28.457Z,998.3
2022-08-03T16:07:33.769Z,998.3
2022-08-03T16:10:02.003Z,998.2
2022-08-03T16:12:30.246Z,998.2
2022-08-03T16:14:58.486Z,998.2
2022-08-03T16:17:26.741Z,998.1
2022-08-03T16:20:34.519Z,998.1
2022-08-03T16:23:37.395Z,998.2
2022-08-03T16:25:57.409Z,998.2
2022-08-03T16:28:25.650Z,998.1
2022-08-03T16:32:09.461Z,998.1
2022-08-03T16:35:19.393Z,998.1
2022-08-03T16:38:19.487Z,998.1
2022-08-03T16:41:23.973Z,998.1
2022-08-03T16:44:29.307Z,998.1
2022-08-03T16:47:34.602Z,998.1
2022-08-03T16:50:05.832Z,998.1
2022-08-03T16:52:31.069Z,998.1
2022-08-03T16:54:59.349Z,998.1
2022-08-03T16:57:29.865Z,998
2022-08-03T17:03:01.446Z,998
2022-08-03T17:05:32.733Z,998
2022-08-03T17:08:34.694Z,998
2022-08-03T17:11:02.948Z,998
2022-08-03T17:13:39.633Z,998
2022-08-03T17:16:01.163Z,998.3
2022-08-03T17:18:27.722Z,998
2022-08-03T17:22:10.092Z,998
2022-08-03T17:25:21.688Z,998
2022-08-03T17:28:42.851Z,998
2022-08-03T17:31:30.949Z,998
2022-08-03T17:34:31.313Z,998
2022-08-03T17:37:04.363Z,998
2022-08-03T17:39:48.753Z,998
2022-08-03T17:43:44.315Z,998
2022-08-03T17:46:12.141Z,998
2022-08-03T17:49:23.721Z,998
2022-08-03T17:52:22.239Z,998.1
2022-08-03T17:55:51.101Z,996.5
2022-08-03T17:58:32.639Z,998.1
2022-08-03T18:01:00.866Z,998.1
2022-08-03T18:03:29.269Z,998.1
2022-08-03T18:06:34.447Z,998.1
2022-08-03T18:10:05.514Z,998.1
2022-08-03T18:11:35.835Z,998.1
2022-08-03T18:13:59.181Z,998.1
2022-08-03T18:16:27.427Z,997.7
2022-08-03T18:20:01.646Z,998.2
2022-08-03T18:22:02.370Z,998.1
2022-08-03T18:24:29.238Z,998.1
2022-08-03T18:27:42.921Z,998.1
2022-08-03T18:30:02.781Z,998.1
2022-08-03T18:32:31.070Z,998.1
2022-08-03T18:36:17.331Z,998.1
2022-08-03T18:39:19.617Z,998.1
2022-08-03T18:42:26.086Z,998.1
2022-08-03T18:45:56.624Z,998.2
2022-08-03T18:47:57.599Z,998.2
2022-08-03T18:50:25.836Z,998.2
2022-08-03T18:54:01.975Z,998.2
2022-08-03T18:56:28.278Z,998.2
2022-08-03T18:59:33.564Z,998.3
2022-08-03T19:02:04.214Z,998.2
2022-08-03T19:04:30.121Z,998.3
2022-08-03T19:06:58.334Z,998.3
2022-08-03T19:10:04.612Z,998.3
2022-08-03T19:13:11.270Z,998.3
2022-08-03T19:16:14.243Z,998.4
2022-08-03T19:19:19.599Z,998.4
2022-08-03T19:22:25.159Z,998.4
2022-08-03T19:25:34.660Z,998.5
2022-08-03T19:27:58.452Z,998.5
2022-08-03T19:30:26.665Z,998.5
2022-08-03T19:33:32.039Z,998.5
2022-08-03T19:36:00.251Z,998.6
2022-08-03T19:38:29.739Z,998.6
2022-08-03T19:41:41.551Z,998.6
2022-08-03T19:45:17.112Z,998.5
2022-08-03T19:48:22.180Z,998.6
2022-08-03T19:52:03.884Z,998.6
2022-08-03T19:54:32.400Z,998.6
2022-08-03T19:56:52.191Z,998.6
2022-08-03T19:59:20.434Z,998.6
2022-08-03T20:01:50.160Z,998.6
2022-08-03T20:05:44.797Z,998.6
2022-08-03T20:12:55.811Z,998.6
2022-08-03T20:15:31.435Z,998.6
2022-08-03T20:19:12.662Z,998.6
2022-08-03T20:21:34.642Z,998.6
2022-08-03T20:25:57.223Z,998.6
2022-08-03T20:31:32.162Z,998.7
2022-08-03T20:33:55.867Z,998.6
2022-08-03T20:37:01.212Z,998.6
2022-08-03T20:40:43.596Z,998.6
2022-08-03T20:47:00.414Z,998.6
2022-08-03T20:49:22.894Z,998.6
2022-08-03T20:51:52.924Z,998.6
2022-08-03T20:56:49.274Z,998.5
2022-08-03T20:59:15.432Z,998.6
2022-08-03T21:02:29.418Z,998.6
2022-08-03T21:05:30.978Z,998.5
2022-08-03T21:17:47.777Z,998.5
2022-08-03T21:23:37.096Z,998.5
2022-08-03T21:26:26.170Z,998.4
2022-08-03T21:29:31.465Z,998.4
2022-08-03T21:31:59.738Z,998.4
2022-08-03T21:34:27.993Z,998.4
2022-08-03T21:39:24.513Z,998.4
2022-08-03T21:42:21.601Z,998.4
2022-08-03T21:45:26.890Z,998.4
2022-08-03T21:48:32.239Z,998.4
2022-08-03T21:51:00.440Z,998.4
2022-08-03T21:54:00.558Z,998.4
2022-08-03T21:56:34.018Z,998.4
2022-08-03T21:59:02.267Z,998.4
2022-08-03T22:01:35.217Z,998.4
2022-08-03T22:03:58.758Z,998.4
2022-08-03T22:06:27.200Z,998.4
2022-08-03T22:10:46.471Z,998.4
2022-08-03T22:13:51.766Z,998.4
2022-08-03T22:18:48.237Z,998.4
2022-08-03T22:23:44.764Z,998.4
2022-08-03T22:27:31.203Z,998.4
2022-08-03T22:29:59.446Z,998.4
2022-08-03T22:32:27.669Z,998.5
2022-08-03T22:37:24.242Z,998.4
2022-08-03T22:39:52.474Z,998.4
2022-08-03T22:42:57.757Z,998.4
2022-08-03T22:50:31.090Z,998.4
2022-08-03T22:52:50.718Z,998.4
2022-08-03T22:57:50.991Z,998.5
2022-08-03T23:01:29.600Z,998.5
2022-08-03T23:04:34.918Z,998.5
2022-08-03T23:07:03.148Z,998.5
2022-08-03T23:09:31.411Z,998.5
2022-08-03T23:11:59.696Z,998.5
2022-08-03T23:14:27.900Z,998.5
2022-08-03T23:18:10.297Z,998.6
2022-08-03T23:22:29.844Z,998.6
2022-08-03T23:25:26.848Z,998.5
2022-08-03T23:28:32.211Z,998.5
2022-08-03T23:31:00.379Z,998.5
2022-08-03T23:33:28.661Z,998.5
2022-08-03T23:36:33.970Z,998.5
2022-08-03T23:39:02.431Z,998.5
2022-08-03T23:41:30.455Z,998.5
2022-08-03T23:43:58.718Z,998.4
2022-08-03T23:46:26.946Z,998.5
2022-08-03T23:53:51.697Z,998.4
